Latest Weather Observations for Butlers Gorge

IDT60801

Issued at 12:41 am EDT Saturday 17 November 2018 (issued every 10 minutes, with the page automatically refreshed every 10 minutes)

About weather observations | Map of weather stations | Latest weather observations for TAS | Other Formats
Station Details ID: 096003 Name: BUTLERS GORGE Lat: -42.28 Lon: 146.28 Height: 667.0 m
Data from the previous 72 hours. | See also: Recent months at Butlers Gorge
Date/Time
EDT
Temp
°C
App
Temp
°C
Dew
Point
°C
Rel
Hum
%
Delta-T
°C
Wind Press
QNH
hPa
Press
MSL
hPa
Rain since
9am
mm
Dir  Spd
km/h
Gust
km/h
Spd
kts
Gust
kts
17/12:30am -0.6 -2.8 -1.9 91 0.4 CALM 0 0 0 0 - - 0.0
17/12:00am -0.3 -2.5 -1.7 90 0.5 CALM 0 0 0 0 - - 0.0
 
Date/Time
EDT
Temp
°C
App
Temp
°C
Dew
Point
°C
Rel
Hum
%
Delta-T
°C
Wind Press
QNH
hPa
Press
MSL
hPa
Rain since
9am
mm
Dir  Spd
km/h
Gust
km/h
Spd
kts
Gust
kts
16/11:30pm 0.0 -2.2 -1.6 89 0.6 CALM 0 0 0 0 - - 0.0
16/11:00pm 1.2 -1.6 -0.7 87 0.7 WNW 4 7 2 4 - - 0.0
16/10:30pm 1.7 -0.4 -0.7 84 0.9 CALM 0 0 0 0 - - 0.0
16/10:00pm 2.4 -0.8 -0.7 80 1.2 W 6 7 3 4 - - 0.0
16/09:30pm 3.7 1.2 -1.3 70 1.9 W 2 7 1 4 - - 0.0
16/09:00pm 6.0 1.6 0.6 68 2.2 WSW 13 17 7 9 - - 0.0
16/08:30pm 6.5 3.5 1.0 68 2.3 WSW 6 9 3 5 - - 0.0
16/08:00pm 7.8 4.5 0.1 58 3.2 WNW 7 13 4 7 - - 0.0
16/07:30pm 8.7 5.1 0.4 56 3.5 WSW 9 19 5 10 - - 0.0
16/07:00pm 9.9 5.2 1.0 54 3.8 WSW 15 28 8 15 - - 0.0
16/06:30pm 10.8 6.3 2.1 55 3.9 SW 15 22 8 12 - - 0.0
16/06:00pm 12.1 7.7 2.8 53 4.2 WSW 15 24 8 13 - - 0.0
16/05:30pm 11.5 8.0 3.5 58 3.7 WSW 11 17 6 9 - - 0.0
16/05:00pm 11.3 8.1 2.9 56 3.8 WSW 9 15 5 8 - - 0.0
16/04:30pm 11.0 7.5 3.3 59 3.5 W 11 19 6 10 - - 0.0
16/04:00pm 12.2 8.7 3.4 55 4.1 SW 11 20 6 11 - - 0.0
16/03:30pm 11.3 6.8 4.1 61 3.3 SW 17 30 9 16 - - 0.0
16/03:00pm 11.2 8.2 4.0 61 3.3 SW 9 19 5 10 - - 0.0
16/02:30pm 11.6 8.4 2.9 55 3.9 WSW 9 15 5 8 - - 0.0
16/02:00pm 11.7 7.5 1.6 50 4.5 SW 13 24 7 13 - - 0.0
16/01:30pm 12.2 8.8 1.8 49 4.6 SW 9 17 5 9 - - 0.0
16/01:00pm 11.9 8.4 1.5 49 4.6 W 9 22 5 12 - - 0.0
16/12:30pm 11.4 7.8 2.7 55 3.9 WSW 11 20 6 11 - - 0.0
16/12:00pm 10.7 6.6 2.3 56 3.7 WSW 13 20 7 11 - - 0.0
16/11:30am 11.2 8.0 2.8 56 3.8 W 9 19 5 10 - - 0.0
16/11:00am 11.4 8.5 2.4 54 4.0 NNW 7 15 4 8 - - 0.0
16/10:30am 11.0 8.2 3.1 58 3.6 N 7 11 4 6 - - 0.0
16/10:00am 10.2 6.6 3.0 61 3.2 NNE 11 15 6 8 - - 0.0
16/09:30am 9.9 7.3 3.2 63 3.0 NW 6 13 3 7 - - 0.0
16/09:00am 8.6 6.5 3.8 72 2.2 ENE 4 7 2 4 - - 0.4
16/08:30am 7.1 5.9 4.4 83 1.2 CALM 0 0 0 0 - - 0.4
16/08:00am 5.7 4.4 4.0 89 0.8 CALM 0 0 0 0 - - 0.4
16/07:30am 5.0 2.3 3.7 91 0.6 ENE 7 9 4 5 - - 0.4
16/07:00am 4.4 2.9 3.2 92 0.5 CALM 0 0 0 0 - - 0.4
16/06:30am 4.1 2.2 2.9 92 0.5 WSW 2 6 1 3 - - 0.4
16/06:00am 3.8 2.2 2.6 92 0.5 CALM 0 0 0 0 - - 0.4
16/05:30am 3.3 1.6 2.1 92 0.5 CALM 0 0 0 0 - - 0.4
16/05:00am 2.9 1.2 1.6 91 0.5 CALM 0 0 0 0 - - 0.4
16/04:30am 3.4 1.7 1.9 90 0.6 CALM 0 0 0 0 - - 0.4
16/04:00am 3.8 2.2 2.3 90 0.6 CALM 0 0 0 0 - - 0.4
16/03:30am 3.9 2.3 2.4 90 0.6 CALM 0 0 0 0 - - 0.4
16/03:00am 3.9 1.0 2.6 91 0.5 NE 7 11 4 6 - - 0.4
16/02:30am 3.0 -0.1 1.2 88 0.7 NE 7 9 4 5 - - 0.4
16/02:00am 4.2 1.4 1.9 85 1.0 NNE 6 9 3 5 - - 0.4
16/01:30am 4.7 1.7 2.2 84 1.0 NNE 7 9 4 5 - - 0.4
16/01:00am 4.8 1.8 1.8 81 1.2 ENE 7 13 4 7 - - 0.4
16/12:30am 5.3 2.2 1.6 77 1.5 NE 7 9 4 5 - - 0.4
16/12:00am 5.5 2.0 1.4 75 1.7 E 9 15 5 8 - - 0.4
 
Date/Time
EDT
Temp
°C
App
Temp
°C
Dew
Point
°C
Rel
Hum
%
Delta-T
°C
Wind Press
QNH
hPa
Press
MSL
hPa
Rain since
9am
mm
Dir  Spd
km/h
Gust
km/h
Spd
kts
Gust
kts
15/11:30pm 5.8 2.7 1.5 74 1.8 E 7 13 4 7 - - 0.4
15/11:00pm 6.0 2.2 1.5 73 1.9 E 11 19 6 10 - - 0.4
15/10:30pm 6.4 3.0 1.7 72 2.0 E 9 15 5 8 - - 0.4
15/10:00pm 6.7 3.3 1.8 71 2.1 E 9 19 5 10 - - 0.4
15/09:30pm 7.3 3.6 2.2 70 2.2 ESE 11 19 6 10 - - 0.4
15/09:00pm 7.7 4.0 2.6 70 2.2 ESE 11 17 6 9 - - 0.4
15/08:30pm 8.4 5.2 3.1 69 2.4 E 9 20 5 11 - - 0.4
15/08:00pm 9.3 5.8 3.5 67 2.6 E 11 15 6 8 - - 0.4
15/07:30pm 10.4 7.2 3.2 61 3.3 ESE 9 15 5 8 - - 0.4
15/07:00pm 11.4 7.8 0.8 48 4.6 SE 9 11 5 6 - - 0.4
15/06:30pm 12.1 8.9 0.8 46 4.9 WSW 7 11 4 6 - - 0.4
15/06:00pm 12.2 8.3 1.2 47 4.8 SW 11 17 6 9 - - 0.4
15/05:30pm 13.3 9.8 1.0 43 5.4 WNW 9 15 5 8 - - 0.4
15/05:00pm 13.2 9.3 1.2 44 5.3 WSW 11 20 6 11 - - 0.4
15/04:30pm 13.1 9.1 2.6 49 4.8 WSW 13 19 7 10 - - 0.4
15/04:00pm 12.3 8.3 0.4 44 5.1 W 11 17 6 9 - - 0.4
15/03:30pm 11.6 7.8 1.8 51 4.3 NNW 11 17 6 9 - - 0.4
15/03:00pm 11.8 8.2 2.8 54 4.1 WSW 11 17 6 9 - - 0.4
15/02:30pm 10.9 6.4 2.0 54 3.9 SW 15 20 8 11 - - 0.4
15/02:00pm 10.7 7.2 1.0 51 4.2 WSW 9 15 5 8 - - 0.4
15/01:30pm 10.3 6.7 0.3 50 4.2 WSW 9 17 5 9 - - 0.4
15/01:00pm 9.4 5.2 1.6 58 3.4 SW 13 20 7 11 - - 0.4
15/12:30pm 10.3 6.6 2.2 57 3.6 NNW 11 19 6 10 - - 0.4
15/12:00pm 9.5 5.7 1.7 58 3.4 SW 11 20 6 11 - - 0.4
15/11:30am 9.9 6.4 3.6 65 2.9 SW 11 19 6 10 - - 0.4
15/11:00am 8.0 4.1 3.5 73 2.0 WSW 13 22 7 12 - - 0.4
15/10:30am 7.1 3.5 3.2 76 1.7 SSW 11 17 6 9 - - 0.4
15/10:00am 6.7 2.0 3.1 78 1.6 WSW 17 22 9 12 - - 0.2
15/09:30am 6.3 2.7 3.1 80 1.4 SW 11 20 6 11 - - 0.0
15/09:00am 6.0 2.5 3.3 83 1.2 WSW 11 17 6 9 - - 1.8
15/08:30am 6.2 3.4 3.0 80 1.4 SW 7 13 4 7 - - 1.6
15/08:00am 7.1 3.2 3.2 76 1.7 SSW 13 20 7 11 - - 1.0
15/07:30am 5.6 3.0 3.4 86 1.0 WSW 6 11 3 6 - - 1.0
15/07:00am 5.2 2.7 3.5 89 0.7 W 6 11 3 6 - - 1.0
15/06:30am 4.7 2.1 3.4 91 0.6 WSW 6 9 3 5 - - 0.8
15/06:00am 3.9 1.2 2.4 90 0.6 WSW 6 6 3 3 - - 0.4
15/05:30am 4.1 1.2 2.5 89 0.7 WSW 7 13 4 7 - - 0.4
15/05:00am 4.9 1.7 2.8 86 0.9 WSW 9 17 5 9 - - 0.4
15/04:30am 5.3 2.8 3.5 88 0.8 W 6 9 3 5 - - 0.4
15/04:00am 5.4 4.0 3.6 88 0.8 CALM 0 4 0 2 - - 0.0
15/03:30am 5.2 3.3 3.1 86 0.9 NE 2 7 1 4 - - 0.0
15/03:00am 5.2 2.9 2.7 84 1.1 W 4 9 2 5 - - 0.0
15/02:30am 5.0 2.7 2.7 85 1.0 WSW 4 9 2 5 - - 0.0
15/02:00am 4.5 1.8 2.5 87 0.8 WSW 6 7 3 4 - - 0.0
15/01:30am 4.1 1.3 1.8 85 0.9 WSW 6 7 3 4 - - 0.0
15/01:00am 4.8 1.7 1.5 79 1.4 WSW 7 9 4 5 - - 0.0
15/12:30am 6.2 2.8 1.7 73 1.9 WSW 9 17 5 9 - - 0.0
15/12:00am 6.2 3.3 2.7 78 1.5 WSW 7 13 4 7 - - 0.0
 
Date/Time
EDT
Temp
°C
App
Temp
°C
Dew
Point
°C
Rel
Hum
%
Delta-T
°C
Wind Press
QNH
hPa
Press
MSL
hPa
Rain since
9am
mm
Dir  Spd
km/h
Gust
km/h
Spd
kts
Gust
kts
14/11:30pm 6.9 3.3 3.2 77 1.6 WSW 11 17 6 9 - - 0.0
14/11:00pm 7.4 3.8 2.7 72 2.0 WSW 11 17 6 9 - - 0.0
14/10:30pm 7.7 5.5 3.4 74 1.9 W 4 9 2 5 - - 0.0
14/10:00pm 8.3 5.2 3.4 71 2.2 WSW 9 15 5 8 - - 0.0
14/09:30pm 8.6 5.5 3.6 71 2.2 WSW 9 15 5 8 - - 0.0
14/09:00pm 9.0 5.9 3.6 69 2.4 WSW 9 13 5 7 - - 0.0
14/08:30pm 9.3 6.6 3.5 67 2.6 WSW 7 13 4 7 - - 0.0
14/08:00pm 9.7 6.5 3.2 64 2.9 WSW 9 17 5 9 - - 0.0
14/07:30pm 10.0 6.4 2.8 61 3.2 WNW 11 17 6 9 - - 0.0
14/07:00pm 11.0 8.0 4.0 62 3.2 WSW 9 19 5 10 - - 0.0
14/06:30pm 11.8 9.2 4.1 59 3.6 NW 7 17 4 9 - - 0.0
14/06:00pm 11.9 9.0 4.4 60 3.5 WNW 9 17 5 9 - - 0.0
14/05:30pm 12.6 9.7 4.8 59 3.7 WNW 9 19 5 10 - - 0.0
14/05:00pm 13.0 8.9 4.4 56 4.1 W 15 26 8 14 - - 0.0
14/04:30pm 14.2 10.3 5.3 55 4.3 W 15 26 8 14 - - 0.0
14/04:00pm 13.3 9.4 5.5 59 3.8 W 15 26 8 14 - - 0.0
14/03:30pm 12.9 7.9 6.5 65 3.2 WSW 22 30 12 16 - - 0.0
14/03:00pm 14.7 11.6 5.5 54 4.5 W 11 17 6 9 - - 0.0
14/02:30pm 15.0 10.6 5.0 51 4.9 WSW 17 30 9 16 - - 0.0
14/02:00pm 15.6 12.2 6.1 53 4.8 W 13 24 7 13 - - 0.0
14/01:30pm 14.8 11.8 6.1 56 4.3 WNW 11 19 6 10 - - 0.0
14/01:00pm 15.4 11.7 6.2 54 4.6 WSW 15 24 8 13 - - 0.0
14/12:30pm 14.9 11.7 6.7 58 4.1 W 13 22 7 12 - - 0.0
14/12:00pm 13.3 9.9 5.7 60 3.7 W 13 24 7 13 - - 0.0
14/11:30am 12.5 9.0 5.4 62 3.4 SW 13 24 7 13 - - 0.0
14/11:00am 12.7 9.8 6.3 65 3.2 W 11 19 6 10 - - 0.0
14/10:30am 12.1 9.0 5.7 65 3.1 WNW 11 15 6 8 - - 0.0
14/10:00am 11.3 8.8 6.4 72 2.4 WNW 9 13 5 7 - - 0.0
14/09:30am 10.8 7.8 6.2 73 2.2 NW 11 17 6 9 - - 0.0
14/09:00am 11.0 8.8 6.4 73 2.2 WNW 7 11 4 6 - - 0.0
14/08:30am 10.0 7.8 6.2 77 1.8 WNW 7 11 4 6 - - 0.0
14/08:00am 9.9 7.7 6.4 79 1.7 WNW 7 13 4 7 - - 0.0
14/07:30am 9.7 7.1 6.1 78 1.7 WNW 9 17 5 9 - - 0.0
14/07:00am 9.7 7.1 6.2 79 1.7 WNW 9 17 5 9 - - 0.0
14/06:30am 9.5 7.3 6.4 81 1.5 WNW 7 13 4 7 - - 0.0
14/06:00am 9.6 7.1 6.5 81 1.5 NW 9 17 5 9 - - 0.0
14/05:30am 10.0 8.1 6.9 81 1.5 WNW 6 11 3 6 - - 0.0
14/05:00am 10.2 7.4 6.9 80 1.6 NW 11 17 6 9 - - 0.0
14/04:30am 10.5 8.7 7.2 80 1.6 W 6 11 3 6 - - 0.0
14/04:00am 10.7 8.3 6.8 77 1.9 W 9 19 5 10 - - 0.0
14/03:30am 11.0 7.9 7.3 78 1.8 NW 13 22 7 12 - - 0.0
14/03:00am 11.3 9.0 7.6 78 1.9 NW 9 17 5 9 - - 0.0
14/02:30am 11.2 9.1 8.2 82 1.5 WNW 9 20 5 11 - - 0.0
14/02:00am 11.6 9.2 8.8 83 1.4 NW 11 20 6 11 - - 0.0
14/01:30am 11.7 9.8 8.9 83 1.4 NW 9 19 5 10 - - 0.0
14/01:00am 11.5 10.0 9.2 86 1.2 WNW 7 17 4 9 - - 0.0

Other Formats:

Comma delimited format used in spreadsheet applications
http://www.bom.gov.au/fwo/IDT60801/IDT60801.94959.axf

JavaScript Object Notation format (JSON) in row-major order
http://www.bom.gov.au/fwo/IDT60801/IDT60801.94959.json